Observation data for Northfield on 08/14/2019      Previous  Date  Next       Current Mesonet Observations  Soil Data  Daily Summary Page  Observations in Plain Language
KNOR 140500Z 06005KT 26/19 A3007 RMK A01 T02590193  RH  071%=      5-min Rain = 0
KNOR 140505Z 06005KT 26/19 A3007 RMK A01 T02600192  RH  070%=      5-min Rain = 0
KNOR 140510Z 07004KT 26/19 A3007 RMK A01 T02600192  RH  070%=      5-min Rain = 0
KNOR 140515Z 08004KT 26/19 A3008 RMK A01 T02590192  RH  070%=      5-min Rain = 0
KNOR 140520Z 08005KT 26/19 A3008 RMK A01 T02580193  RH  071%=      5-min Rain = 0
KNOR 140525Z 08005KT 26/19 A3008 RMK A01 T02560193  RH  072%=      5-min Rain = 0
KNOR 140530Z 07005KT 26/19 A3008 RMK A01 T02560193  RH  072%=      5-min Rain = 0
KNOR 140535Z 07005KT 26/19 A3008 RMK A01 T02550193  RH  073%=      5-min Rain = 0
KNOR 140540Z 06005KT 25/19 A3009 RMK A01 T02540193  RH  073%=      5-min Rain = 0
KNOR 140545Z 04006KT 25/19 A301 RMK A01 T02530193  RH  074%=      5-min Rain = 0
KNOR 140550Z 04006KT 25/19 A301 RMK A01 T02520193  RH  074%=      5-min Rain = 0
KNOR 140555Z 04006KT 25/19 A3011 RMK A01 T02530193  RH  073%=      5-min Rain = 0
KNOR 140600Z 04007KT 25/19 A3011 RMK A01 T02530192  RH  073%=      5-min Rain = 0
KNOR 140605Z 05006KT 25/19 A3011 RMK A01 T02530192  RH  073%=      5-min Rain = 0
KNOR 140610Z 06006KT 25/19 A301 RMK A01 T02520191  RH  073%=      5-min Rain = 0
KNOR 140615Z 07006KT 25/19 A301 RMK A01 T02520189  RH  072%=      5-min Rain = 0
KNOR 140620Z 06006KT 25/19 A3011 RMK A01 T02520189  RH  072%=      5-min Rain = 0
KNOR 140625Z 06006KT 25/19 A3011 RMK A01 T02520188  RH  072%=      5-min Rain = 0
KNOR 140630Z 05006KT 25/19 A3011 RMK A01 T02510188  RH  072%=      5-min Rain = 0
KNOR 140635Z 04007KT 25/19 A3011 RMK A01 T02500189  RH  072%=      5-min Rain = 0
KNOR 140640Z 04007KT 25/19 A3011 RMK A01 T02500189  RH  073%=      5-min Rain = 0
KNOR 140645Z 05006KT 25/19 A3011 RMK A01 T02510189  RH  072%=      5-min Rain = 0
KNOR 140650Z 05006KT 25/19 A3011 RMK A01 T02500188  RH  072%=      5-min Rain = 0
KNOR 140655Z 07006KT 25/19 A301 RMK A01 T02500188  RH  072%=      5-min Rain = 0
KNOR 140700Z 08005KT 25/19 A301 RMK A01 T02500186  RH  071%=      5-min Rain = 0
KNOR 140705Z 08004KT 25/19 A301 RMK A01 T02500186  RH  071%=      5-min Rain = 0
KNOR 140710Z 09004KT 25/19 A301 RMK A01 T02490186  RH  072%=      5-min Rain = 0
KNOR 140715Z 08004KT 25/19 A3009 RMK A01 T02470186  RH  073%=      5-min Rain = 0
KNOR 140720Z 09004KT 25/19 A3009 RMK A01 T02450186  RH  073%=      5-min Rain = 0
KNOR 140725Z 09004KT 24/19 A3008 RMK A01 T02440185  RH  074%=      5-min Rain = 0
KNOR 140730Z 08004KT 24/19 A3008 RMK A01 T02430185  RH  074%=      5-min Rain = 0
KNOR 140735Z 07005KT 24/19 A3009 RMK A01 T02420185  RH  075%=      5-min Rain = 0
KNOR 140740Z 03009KT 24/19 A301 RMK A01 T02390187  RH  077%=      5-min Rain = 0
KNOR 140745Z 04006KT 24/19 A301 RMK A01 T02380189  RH  078%=      5-min Rain = 0
KNOR 140750Z 04006KT 24/19 A301 RMK A01 T02380188  RH  077%=      5-min Rain = 0
KNOR 140755Z 06006KT 24/19 A301 RMK A01 T02390187  RH  077%=      5-min Rain = 0
KNOR 140800Z 07004KT 24/19 A301 RMK A01 T02380187  RH  077%=      5-min Rain = 0
KNOR 140805Z 06005KT 24/19 A301 RMK A01 T02370186  RH  077%=      5-min Rain = 0
KNOR 140810Z 05007KT 24/19 A301 RMK A01 T02350186  RH  078%=      5-min Rain = 0
KNOR 140815Z 05006KT 23/19 A301 RMK A01 T02340185  RH  078%=      5-min Rain = 0
KNOR 140820Z 04007KT 23/19 A301 RMK A01 T02340185  RH  078%=      5-min Rain = 0
KNOR 140825Z 03007KT 23/18 A301 RMK A01 T02320184  RH  078%=      5-min Rain = 0
KNOR 140830Z 03010G16KT 23/18 A301 RMK A01 T02320180  RH  077%=      5-min Rain = 0
KNOR 140835Z 03010KT 23/18 A301 RMK A01 T02320176  RH  075%=      5-min Rain = 0
KNOR 140840Z 03010KT 23/17 A301 RMK A01 T02290172  RH  074%=      5-min Rain = 0
KNOR 140845Z 03009KT 23/17 A301 RMK A01 T02280167  RH  072%=      5-min Rain = 0
KNOR 140850Z 03010G15KT 23/16 A3011 RMK A01 T02260163  RH  071%=      5-min Rain = 0
KNOR 140855Z 03010G15KT 22/16 A3011 RMK A01 T02240157  RH  069%=      5-min Rain = 0
KNOR 140900Z 03010KT 22/15 A3011 RMK A01 T02220154  RH  069%=      5-min Rain = 0
KNOR 140905Z 02008KT 22/15 A3011 RMK A01 T02200154  RH  070%=      5-min Rain = 0
KNOR 140910Z 02008KT 22/16 A3011 RMK A01 T02170155  RH  071%=      5-min Rain = 0
KNOR 140915Z 02007KT 22/15 A3012 RMK A01 T02150154  RH  071%=      5-min Rain = 0
KNOR 140920Z 02007KT 21/15 A3012 RMK A01 T02130153  RH  072%=      5-min Rain = 0
KNOR 140925Z 02007KT 21/15 A3012 RMK A01 T02120152  RH  072%=      5-min Rain = 0
KNOR 140930Z 02007KT 21/15 A3012 RMK A01 T02100151  RH  072%=      5-min Rain = 0
KNOR 140935Z 03007KT 21/15 A3013 RMK A01 T02100150  RH  072%=      5-min Rain = 0
KNOR 140940Z 04006KT 21/15 A3013 RMK A01 T02100150  RH  072%=      5-min Rain = 0
KNOR 140945Z 04005KT 21/15 A3013 RMK A01 T02090150  RH  072%=      5-min Rain = 0
KNOR 140950Z 04005KT 21/15 A3013 RMK A01 T02080150  RH  073%=      5-min Rain = 0
KNOR 140955Z 03006KT 21/15 A3014 RMK A01 T02070150  RH  073%=      5-min Rain = 0
KNOR 141000Z 03007KT 21/15 A3014 RMK A01 T02070150  RH  073%=      5-min Rain = 0
KNOR 141005Z 03007KT 21/15 A3014 RMK A01 T02050150  RH  074%=      5-min Rain = 0
KNOR 141010Z 03006KT 20/15 A3014 RMK A01 T02040150  RH  075%=      5-min Rain = 0
KNOR 141015Z 03007KT 20/15 A3014 RMK A01 T02030150  RH  075%=      5-min Rain = 0
KNOR 141020Z 03006KT 20/15 A3015 RMK A01 T02030150  RH  075%=      5-min Rain = 0
KNOR 141025Z 02006KT 20/15 A3015 RMK A01 T02020151  RH  076%=      5-min Rain = 0
KNOR 141030Z 02005KT 20/15 A3015 RMK A01 T02010151  RH  076%=      5-min Rain = 0
KNOR 141035Z 02005KT 20/15 A3015 RMK A01 T02010151  RH  076%=      5-min Rain = 0
KNOR 141040Z 02005KT 20/15 A3015 RMK A01 T02000151  RH  077%=      5-min Rain = 0
KNOR 141045Z 02004KT 20/15 A3015 RMK A01 T02000151  RH  077%=      5-min Rain = 0
KNOR 141050Z 02005KT 20/15 A3015 RMK A01 T01980151  RH  078%=      5-min Rain = 0
KNOR 141055Z 02004KT 20/15 A3015 RMK A01 T01970151  RH  078%=      5-min Rain = 0
KNOR 141100Z 01003KT 20/15 A3015 RMK A01 T01960151  RH  079%=      5-min Rain = 0
KNOR 141105Z 01004KT 20/15 A3015 RMK A01 T01950151  RH  080%=      5-min Rain = 0
KNOR 141110Z 00005KT 19/15 A3015 RMK A01 T01940152  RH  080%=      5-min Rain = 0
KNOR 141115Z 36006KT 19/15 A3015 RMK A01 T01940153  RH  081%=      5-min Rain = 0
KNOR 141120Z 35007KT 19/15 A3015 RMK A01 T01930153  RH  081%=      5-min Rain = 0
KNOR 141125Z 34006KT 19/15 A3015 RMK A01 T01930153  RH  081%=      5-min Rain = 0
KNOR 141130Z 34005KT 19/15 A3015 RMK A01 T01930153  RH  082%=      5-min Rain = 0
KNOR 141135Z 33006KT 19/15 A3015 RMK A01 T01920153  RH  082%=      5-min Rain = 0
KNOR 141140Z 33005KT 19/15 A3016 RMK A01 T01910153  RH  082%=      5-min Rain = 0
KNOR 141145Z 33005KT 19/15 A3015 RMK A01 T01910152  RH  082%=      5-min Rain = 0
KNOR 141150Z 33006KT 19/15 A3016 RMK A01 T01900153  RH  082%=      5-min Rain = 0
KNOR 141155Z 34006KT 19/15 A3016 RMK A01 T01900153  RH  083%=      5-min Rain = 0
KNOR 141200Z 33006KT 19/15 A3016 RMK A01 T01910153  RH  082%=      5-min Rain = 0
KNOR 141205Z 33006KT 19/15 A3016 RMK A01 T01910153  RH  082%=      5-min Rain = 0
KNOR 141210Z 33006KT 19/15 A3016 RMK A01 T01910153  RH  083%=      5-min Rain = 0
KNOR 141215Z 33006KT 19/15 A3016 RMK A01 T01910154  RH  083%=      5-min Rain = 0
KNOR 141220Z 33006KT 19/15 A3016 RMK A01 T01920154  RH  082%=      5-min Rain = 0
KNOR 141225Z 33005KT 19/15 A3016 RMK A01 T01930153  RH  081%=      5-min Rain = 0
KNOR 141230Z 33005KT 20/15 A3016 RMK A01 T01950154  RH  081%=      5-min Rain = 0
KNOR 141235Z 33005KT 20/15 A3016 RMK A01 T01970153  RH  079%=      5-min Rain = 0
KNOR 141240Z 33006KT 20/15 A3016 RMK A01 T02000154  RH  078%=      5-min Rain = 0
KNOR 141245Z 34006KT 20/15 A3017 RMK A01 T02020154  RH  077%=      5-min Rain = 0
KNOR 141250Z 34005KT 21/15 A3017 RMK A01 T02050154  RH  076%=      5-min Rain = 0
KNOR 141255Z 34005KT 21/15 A3017 RMK A01 T02080154  RH  075%=      5-min Rain = 0
KNOR 141300Z 33005KT 21/16 A3017 RMK A01 T02100155  RH  074%=      5-min Rain = 0
KNOR 141305Z 33006KT 21/16 A3017 RMK A01 T02130156  RH  073%=      5-min Rain = 0
KNOR 141310Z 33006KT 22/16 A3017 RMK A01 T02150156  RH  072%=      5-min Rain = 0
KNOR 141315Z 32006KT 22/16 A3017 RMK A01 T02160156  RH  072%=      5-min Rain = 0
KNOR 141320Z 33008KT 22/16 A3018 RMK A01 T02190156  RH  071%=      5-min Rain = 0
KNOR 141325Z 33005KT 22/16 A3017 RMK A01 T02220157  RH  070%=      5-min Rain = 0
KNOR 141330Z 32007KT 22/16 A3018 RMK A01 T02240157  RH  069%=      5-min Rain = 0
KNOR 141335Z 32006KT 23/16 A3018 RMK A01 T02250157  RH  069%=      5-min Rain = 0
KNOR 141340Z 33009KT 23/16 A3019 RMK A01 T02270157  RH  068%=      5-min Rain = 0
KNOR 141345Z 35009KT 23/16 A3019 RMK A01 T02290157  RH  067%=      5-min Rain = 0
KNOR 141350Z 35010KT 23/16 A3019 RMK A01 T02310157  RH  066%=      5-min Rain = 0
KNOR 141355Z 35009KT 23/16 A3019 RMK A01 T02320157  RH  066%=      5-min Rain = 0
KNOR 141400Z 36007KT 24/16 A302 RMK A01 T02380158  RH  064%=      5-min Rain = 0
KNOR 141405Z 35008KT 24/16 A3019 RMK A01 T02430159  RH  062%=      5-min Rain = 0
KNOR 141410Z 34007KT 24/16 A302 RMK A01 T02430159  RH  062%=      5-min Rain = 0
KNOR 141415Z 34008KT 24/16 A3019 RMK A01 T02440159  RH  062%=      5-min Rain = 0
KNOR 141420Z 34008KT 25/16 A302 RMK A01 T02470159  RH  061%=      5-min Rain = 0
KNOR 141425Z 35006KT 25/16 A3019 RMK A01 T02480158  RH  060%=      5-min Rain = 0
KNOR 141430Z 35007KT 25/16 A3019 RMK A01 T02510161  RH  060%=      5-min Rain = 0
KNOR 141435Z 35006KT 26/16 A3019 RMK A01 T02550161  RH  059%=      5-min Rain = 0
KNOR 141440Z 35006KT 26/16 A3019 RMK A01 T02590161  RH  057%=      5-min Rain = 0
KNOR 141445Z 02007KT 26/16 A3019 RMK A01 T02600164  RH  058%=      5-min Rain = 0
KNOR 141450Z 00006KT 26/16 A3019 RMK A01 T02600163  RH  058%=      5-min Rain = 0
KNOR 141455Z 02007KT 26/17 A3019 RMK A01 T02610165  RH  058%=      5-min Rain = 0
KNOR 141500Z 01006KT 27/17 A3019 RMK A01 T02650166  RH  057%=      5-min Rain = 0
KNOR 141505Z 00006KT 27/17 A302 RMK A01 T02660166  RH  057%=      5-min Rain = 0
KNOR 141510Z 33005KT 27/17 A302 RMK A01 T02650167  RH  058%=      5-min Rain = 0
KNOR 141515Z 33006KT 27/17 A3019 RMK A01 T02650168  RH  058%=      5-min Rain = 0
KNOR 141520Z 31005KT 27/17 A3018 RMK A01 T02660167  RH  057%=      5-min Rain = 0
KNOR 141525Z 32004KT 27/17 A3018 RMK A01 T02690169  RH  057%=      5-min Rain = 0
KNOR 141530Z 34005KT 27/17 A3018 RMK A01 T02720171  RH  057%=      5-min Rain = 0
KNOR 141535Z 36003KT 27/17 A3018 RMK A01 T02730170  RH  056%=      5-min Rain = 0
KNOR 141540Z 35005KT 28/17 A3018 RMK A01 T02760172  RH  056%=      5-min Rain = 0
KNOR 141545Z 02004KT 27/17 A3017 RMK A01 T02730173  RH  057%=      5-min Rain = 0
KNOR 141550Z 35002KT 28/17 A3017 RMK A01 T02790173  RH  055%=      5-min Rain = 0
KNOR 141555Z 26001KT 28/17 A3017 RMK A01 T02820173  RH  054%=      5-min Rain = 0
KNOR 141600Z 31002KT 29/17 A3017 RMK A01 T02870171  RH  052%=      5-min Rain = 0
KNOR 141605Z 21002KT 29/17 A3016 RMK A01 T02870170  RH  052%=      5-min Rain = 0
KNOR 141610Z 11002KT 29/17 A3016 RMK A01 T02910168  RH  050%=      5-min Rain = 0
KNOR 141615Z 08003KT 30/17 A3016 RMK A01 T02950168  RH  049%=      5-min Rain = 0
KNOR 141620Z 10005KT 30/17 A3015 RMK A01 T02960168  RH  048%=      5-min Rain = 0
KNOR 141625Z 12004G9KT 30/17 A3015 RMK A01 T03010169  RH  047%=      5-min Rain = 0
KNOR 141630Z 11005KT 30/17 A3014 RMK A01 T03030166  RH  046%=      5-min Rain = 0
KNOR 141635Z 11006G12KT 30/17 A3014 RMK A01 T03030169  RH  047%=      5-min Rain = 0
KNOR 141640Z 09007KT 31/17 A3014 RMK A01 T03050165  RH  045%=      5-min Rain = 0
KNOR 141645Z 08005G10KT 31/16 A3013 RMK A01 T03080160  RH  043%=      5-min Rain = 0
KNOR 141650Z 08007KT 32/16 A3013 RMK A01 T03150160  RH  041%=      5-min Rain = 0
KNOR 141655Z 09004KT 31/16 A3013 RMK A01 T03140161  RH  041%=      5-min Rain = 0
KNOR 141700Z 03005KT 32/17 A3013 RMK A01 T03170165  RH  042%=      5-min Rain = 0
KNOR 141705Z 02007KT 32/16 A3013 RMK A01 T03200160  RH  040%=      5-min Rain = 0
KNOR 141710Z 02006G11KT 31/17 A3013 RMK A01 T03140166  RH  043%=      5-min Rain = 0
KNOR 141715Z 01006G13KT 31/16 A3013 RMK A01 T03140162  RH  042%=      5-min Rain = 0
KNOR 141720Z 01006G12KT 32/16 A3014 RMK A01 T03190162  RH  041%=      5-min Rain = 0
KNOR 141725Z 01009KT 32/17 A3013 RMK A01 T03230165  RH  041%=      5-min Rain = 0
KNOR 141730Z 01008KT 32/17 A3014 RMK A01 T03240165  RH  041%=      5-min Rain = 0
KNOR 141735Z 33005G10KT 32/17 A3014 RMK A01 T03200169  RH  043%=      5-min Rain = 0
KNOR 141740Z 00007G14KT 32/17 A3013 RMK A01 T03240167  RH  041%=      5-min Rain = 0
KNOR 141745Z 02007KT 32/16 A3013 RMK A01 T03230164  RH  041%=      5-min Rain = 0
KNOR 141750Z 36007G14KT 32/16 A3013 RMK A01 T03240161  RH  040%=      5-min Rain = 0
KNOR 141755Z 03010G15KT 33/16 A3013 RMK A01 T03270157  RH  038%=      5-min Rain = 0
KNOR 141800Z 02009G14KT 33/16 A3013 RMK A01 T03290159  RH  038%=      5-min Rain = 0
KNOR 141805Z 01008KT 33/16 A3013 RMK A01 T03290161  RH  038%=      5-min Rain = 0
KNOR 141810Z 04008KT 33/16 A3013 RMK A01 T03310158  RH  037%=      5-min Rain = 0
KNOR 141815Z 03009G15KT 33/16 A3012 RMK A01 T03270162  RH  039%=      5-min Rain = 0
KNOR 141820Z 01012G18KT 33/16 A3013 RMK A01 T03280163  RH  039%=      5-min Rain = 0
KNOR 141825Z 02010G16KT 33/16 A3012 RMK A01 T03270163  RH  039%=      5-min Rain = 0
KNOR 141830Z 01009KT 32/16 A3012 RMK A01 T03240163  RH  040%=      5-min Rain = 0
KNOR 141835Z 01005G11KT 32/16 A3012 RMK A01 T03220160  RH  040%=      5-min Rain = 0
KNOR 141840Z 04009G14KT 33/16 A3012 RMK A01 T03270160  RH  038%=      5-min Rain = 0
KNOR 141845Z 08008G13KT 33/16 A3012 RMK A01 T03280163  RH  039%=      5-min Rain = 0
KNOR 141850Z 03010G15KT 33/16 A3012 RMK A01 T03290158  RH  038%=      5-min Rain = 0
KNOR 141855Z 05008G13KT 33/16 A3012 RMK A01 T03280155  RH  037%=      5-min Rain = 0
KNOR 141900Z 02008G13KT 33/16 A3012 RMK A01 T03280157  RH  037%=      5-min Rain = 0
KNOR 141905Z 36009KT 32/16 A3012 RMK A01 T03170157  RH  040%=      5-min Rain = 0
KNOR 141910Z 33006G12KT 32/16 A3012 RMK A01 T03160158  RH  040%=      5-min Rain = 0
KNOR 141915Z 01008G14KT 33/16 A3011 RMK A01 T03280162  RH  039%=      5-min Rain = 0
KNOR 141920Z 02007G12KT 33/16 A3011 RMK A01 T03270163  RH  039%=      5-min Rain = 0
KNOR 141925Z 35006KT 33/17 A3011 RMK A01 T03280165  RH  040%=      5-min Rain = 0
KNOR 141930Z 06005G10KT 33/17 A3011 RMK A01 T03310165  RH  039%=      5-min Rain = 0
KNOR 141935Z 06008G14KT 33/16 A301 RMK A01 T03290163  RH  039%=      5-min Rain = 0
KNOR 141940Z 06008KT 33/16 A301 RMK A01 T03320164  RH  039%=      5-min Rain = 0
KNOR 141945Z 06005KT 33/16 A301 RMK A01 T03320162  RH  038%=      5-min Rain = 0
KNOR 141950Z 04003KT 33/16 A3009 RMK A01 T03290161  RH  038%=      5-min Rain = 0
KNOR 141955Z 35003KT 33/16 A3009 RMK A01 T03310157  RH  037%=      5-min Rain = 0
KNOR 142000Z 08001KT 33/16 A3009 RMK A01 T03340156  RH  036%=      5-min Rain = 0
KNOR 142005Z 08005G11KT 34/16 A3008 RMK A01 T03400158  RH  035%=      5-min Rain = 0
KNOR 142010Z 06005G10KT 34/16 A3008 RMK A01 T03370162  RH  037%=      5-min Rain = 0
KNOR 142015Z 03004G10KT 34/16 A3007 RMK A01 T03390163  RH  037%=      5-min Rain = 0
KNOR 142020Z 02004G10KT 34/16 A3007 RMK A01 T03370162  RH  037%=      5-min Rain = 0
KNOR 142025Z 09005G10KT 34/16 A3007 RMK A01 T03420161  RH  036%=      5-min Rain = 0
KNOR 142030Z 06005G10KT 34/16 A3006 RMK A01 T03410161  RH  036%=      5-min Rain = 0
KNOR 142035Z 10004KT 35/16 A3006 RMK A01 T03450159  RH  034%=      5-min Rain = 0
KNOR 142040Z 05008KT 35/16 A3006 RMK A01 T03460158  RH  034%=      5-min Rain = 0
KNOR 142045Z 04006G12KT 35/16 A3006 RMK A01 T03460156  RH  034%=      5-min Rain = 0
KNOR 142050Z 04005G11KT 34/16 A3005 RMK A01 T03420156  RH  034%=      5-min Rain = 0
KNOR 142055Z 04007G12KT 34/16 A3005 RMK A01 T03410155  RH  034%=      5-min Rain = 0
KNOR 142100Z 03005G10KT 35/16 A3006 RMK A01 T03460155  RH  034%=      5-min Rain = 0
KNOR 142105Z 05005KT 34/16 A3005 RMK A01 T03440156  RH  034%=      5-min Rain = 0
KNOR 142110Z 07007G12KT 34/16 A3005 RMK A01 T03430161  RH  036%=      5-min Rain = 0
KNOR 142115Z 07008KT 34/16 A3005 RMK A01 T03410161  RH  036%=      5-min Rain = 0
KNOR 142120Z 08005KT 34/16 A3005 RMK A01 T03390159  RH  036%=      5-min Rain = 0
KNOR 142125Z 07008KT 35/16 A3004 RMK A01 T03460161  RH  035%=      5-min Rain = 0
KNOR 142130Z 07005G10KT 35/16 A3004 RMK A01 T03450160  RH  035%=      5-min Rain = 0
KNOR 142135Z 08004G11KT 35/16 A3004 RMK A01 T03450158  RH  034%=      5-min Rain = 0
KNOR 142140Z 09003KT 34/15 A3004 RMK A01 T03430154  RH  034%=      5-min Rain = 0
KNOR 142145Z 05006G12KT 34/15 A3004 RMK A01 T03440151  RH  033%=      5-min Rain = 0
KNOR 142150Z 04005KT 34/15 A3004 RMK A01 T03430153  RH  034%=      5-min Rain = 0
KNOR 142155Z 03004G9KT 34/15 A3003 RMK A01 T03440149  RH  033%=      5-min Rain = 0
KNOR 142200Z 02006KT 35/15 A3003 RMK A01 T03500150  RH  032%=      5-min Rain = 0
KNOR 142205Z 03007KT 35/15 A3003 RMK A01 T03510150  RH  032%=      5-min Rain = 0
KNOR 142210Z 06006KT 35/15 A3003 RMK A01 T03480149  RH  032%=      5-min Rain = 0
KNOR 142215Z 07003KT 35/15 A3003 RMK A01 T03450145  RH  032%=      5-min Rain = 0
KNOR 142220Z 06006G11KT 35/15 A3003 RMK A01 T03480147  RH  031%=      5-min Rain = 0
KNOR 142225Z 05005KT 35/14 A3003 RMK A01 T03480140  RH  030%=      5-min Rain = 0
KNOR 142230Z 06006KT 35/14 A3003 RMK A01 T03490139  RH  030%=      5-min Rain = 0
KNOR 142235Z 05007KT 35/13 A3003 RMK A01 T03510133  RH  028%=      5-min Rain = 0
KNOR 142240Z 08004G9KT 35/13 A3002 RMK A01 T03490133  RH  028%=      5-min Rain = 0
KNOR 142245Z 07006KT 35/14 A3003 RMK A01 T03480136  RH  029%=      5-min Rain = 0
KNOR 142250Z 10007KT 35/13 A3003 RMK A01 T03470133  RH  029%=      5-min Rain = 0
KNOR 142255Z 09005KT 35/13 A3003 RMK A01 T03480133  RH  029%=      5-min Rain = 0
KNOR 142300Z 06006KT 35/13 A3002 RMK A01 T03480133  RH  029%=      5-min Rain = 0
KNOR 142305Z 08006KT 35/13 A3002 RMK A01 T03490132  RH  028%=      5-min Rain = 0
KNOR 142310Z 07005KT 35/13 A3002 RMK A01 T03480133  RH  029%=      5-min Rain = 0
KNOR 142315Z 03007KT 35/14 A3002 RMK A01 T03470135  RH  029%=      5-min Rain = 0
KNOR 142320Z 03007KT 35/14 A3002 RMK A01 T03460136  RH  030%=      5-min Rain = 0
KNOR 142325Z 05003KT 35/14 A3002 RMK A01 T03500135  RH  029%=      5-min Rain = 0
KNOR 142330Z 06006KT 35/13 A3002 RMK A01 T03480134  RH  029%=      5-min Rain = 0
KNOR 142335Z 06005KT 35/14 A3003 RMK A01 T03450138  RH  030%=      5-min Rain = 0
KNOR 142340Z 06004G9KT 35/14 A3003 RMK A01 T03460144  RH  031%=      5-min Rain = 0
KNOR 142345Z 09007G12KT 34/14 A3003 RMK A01 T03430142  RH  031%=      5-min Rain = 0
KNOR 142350Z 09004G9KT 34/14 A3003 RMK A01 T03420143  RH  032%=      5-min Rain = 0
KNOR 142355Z 05004KT 35/14 A3003 RMK A01 T03450142  RH  031%=      5-min Rain = 0
KNOR 150000Z 08005KT 34/14 A3002 RMK A01 T03420141  RH  031%=      5-min Rain = 0
KNOR 150005Z 07006KT 34/14 A3003 RMK A01 T03410140  RH  031%=      5-min Rain = 0
KNOR 150010Z 06004KT 34/14 A3003 RMK A01 T03410140  RH  031%=      5-min Rain = 0
KNOR 150015Z 06005KT 34/14 A3003 RMK A01 T03410144  RH  032%=      5-min Rain = 0
KNOR 150020Z 07008KT 34/15 A3002 RMK A01 T03380150  RH  034%=      5-min Rain = 0
KNOR 150025Z 07006KT 34/15 A3002 RMK A01 T03350150  RH  034%=      5-min Rain = 0
KNOR 150030Z 06006KT 34/15 A3002 RMK A01 T03350150  RH  034%=      5-min Rain = 0
KNOR 150035Z 05006KT 33/15 A3003 RMK A01 T03340147  RH  034%=      5-min Rain = 0
KNOR 150040Z 05007KT 33/15 A3003 RMK A01 T03320146  RH  034%=      5-min Rain = 0
KNOR 150045Z 07006KT 33/15 A3003 RMK A01 T03270148  RH  036%=      5-min Rain = 0
KNOR 150050Z 08005G10KT 32/15 A3003 RMK A01 T03230148  RH  036%=      5-min Rain = 0
KNOR 150055Z 07006KT 32/15 A3003 RMK A01 T03210147  RH  037%=      5-min Rain = 0
KNOR 150100Z 08006KT 32/15 A3003 RMK A01 T03190148  RH  037%=      5-min Rain = 0
KNOR 150105Z 07006KT 32/15 A3004 RMK A01 T03190150  RH  038%=      5-min Rain = 0
KNOR 150110Z 07006KT 32/15 A3004 RMK A01 T03160151  RH  038%=      5-min Rain = 0
KNOR 150115Z 08005KT 31/15 A3004 RMK A01 T03130152  RH  039%=      5-min Rain = 0
KNOR 150120Z 08006KT 31/15 A3004 RMK A01 T03100153  RH  041%=      5-min Rain = 0
KNOR 150125Z 08006KT 31/15 A3004 RMK A01 T03070153  RH  041%=      5-min Rain = 0
KNOR 150130Z 08005KT 31/15 A3004 RMK A01 T03050154  RH  042%=      5-min Rain = 0
KNOR 150135Z 08005KT 30/16 A3005 RMK A01 T03010155  RH  043%=      5-min Rain = 0
KNOR 150140Z 08005KT 30/16 A3005 RMK A01 T02990155  RH  044%=      5-min Rain = 0
KNOR 150145Z 08005KT 30/16 A3005 RMK A01 T02980155  RH  044%=      5-min Rain = 0
KNOR 150150Z 09005KT 30/16 A3005 RMK A01 T02970155  RH  044%=      5-min Rain = 0
KNOR 150155Z 08005KT 30/15 A3005 RMK A01 T02960154  RH  044%=      5-min Rain = 0
KNOR 150200Z 08005KT 29/16 A3005 RMK A01 T02940155  RH  045%=      5-min Rain = 0
KNOR 150205Z 08005KT 29/16 A3006 RMK A01 T02920155  RH  045%=      5-min Rain = 0
KNOR 150210Z 08005KT 29/15 A3006 RMK A01 T02910154  RH  046%=      5-min Rain = 0
KNOR 150215Z 08005KT 29/15 A3006 RMK A01 T02900154  RH  046%=      5-min Rain = 0
KNOR 150220Z 08005KT 29/15 A3006 RMK A01 T02880154  RH  046%=      5-min Rain = 0
KNOR 150225Z 09005KT 29/15 A3007 RMK A01 T02870154  RH  046%=      5-min Rain = 0
KNOR 150230Z 09005KT 29/15 A3007 RMK A01 T02870153  RH  046%=      5-min Rain = 0
KNOR 150235Z 09005KT 29/15 A3007 RMK A01 T02860153  RH  047%=      5-min Rain = 0
KNOR 150240Z 10005KT 28/15 A3007 RMK A01 T02830154  RH  047%=      5-min Rain = 0
KNOR 150245Z 10005KT 28/15 A3007 RMK A01 T02820154  RH  048%=      5-min Rain = 0
KNOR 150250Z 10005KT 28/15 A3008 RMK A01 T02810154  RH  048%=      5-min Rain = 0
KNOR 150255Z 10006KT 28/15 A3008 RMK A01 T02810153  RH  048%=      5-min Rain = 0
KNOR 150300Z 10006KT 28/15 A3008 RMK A01 T02810152  RH  048%=      5-min Rain = 0
KNOR 150305Z 10006KT 28/15 A3008 RMK A01 T02810152  RH  047%=      5-min Rain = 0
KNOR 150310Z 11006KT 28/15 A3008 RMK A01 T02810150  RH  047%=      5-min Rain = 0
KNOR 150315Z 11006KT 28/15 A3008 RMK A01 T02790151  RH  047%=      5-min Rain = 0
KNOR 150320Z 11006KT 28/15 A3009 RMK A01 T02780151  RH  048%=      5-min Rain = 0
KNOR 150325Z 11006KT 28/15 A3009 RMK A01 T02770152  RH  049%=      5-min Rain = 0
KNOR 150330Z 11006KT 28/15 A3009 RMK A01 T02760152  RH  049%=      5-min Rain = 0
KNOR 150335Z 10006KT 28/15 A3009 RMK A01 T02780150  RH  048%=      5-min Rain = 0
KNOR 150340Z 10006KT 28/15 A301 RMK A01 T02780150  RH  048%=      5-min Rain = 0
KNOR 150345Z 10006KT 28/15 A301 RMK A01 T02760150  RH  048%=      5-min Rain = 0
KNOR 150350Z 11006KT 28/15 A301 RMK A01 T02750150  RH  048%=      5-min Rain = 0
KNOR 150355Z 10006KT 27/15 A301 RMK A01 T02740150  RH  049%=      5-min Rain = 0
KNOR 150400Z 11006KT 27/15 A301 RMK A01 T02740150  RH  049%=      5-min Rain = 0
KNOR 150405Z 10006KT 27/15 A301 RMK A01 T02730150  RH  049%=      5-min Rain = 0
KNOR 150410Z 10006KT 27/15 A301 RMK A01 T02720150  RH  049%=      5-min Rain = 0
KNOR 150415Z 11006KT 27/15 A301 RMK A01 T02710150  RH  050%=      5-min Rain = 0
KNOR 150420Z 11006KT 27/15 A3011 RMK A01 T02680151  RH  051%=      5-min Rain = 0
KNOR 150425Z 12006KT 27/15 A3011 RMK A01 T02650151  RH  052%=      5-min Rain = 0
KNOR 150430Z 12007KT 26/15 A3011 RMK A01 T02640151  RH  052%=      5-min Rain = 0
KNOR 150435Z 11006KT 26/15 A3011 RMK A01 T02630152  RH  053%=      5-min Rain = 0
KNOR 150440Z 11006KT 26/15 A3011 RMK A01 T02640152  RH  052%=      5-min Rain = 0
KNOR 150445Z 11007KT 26/15 A3011 RMK A01 T02640152  RH  052%=      5-min Rain = 0
KNOR 150450Z 11006KT 26/15 A3011 RMK A01 T02630152  RH  053%=      5-min Rain = 0
KNOR 150455Z 11006KT 26/15 A3011 RMK A01 T02610152  RH  053%=      5-min Rain = 0

Page generated in 0.0088 seconds.